sensor_id;sensor_type;location;lat;lon;timestamp;P1;durP1;ratioP1;P2;durP2;ratioP2
9541;SDS011;4809;48.224;8.572;2024-02-26T00:01:48;1.70;;;1.60;;
9541;SDS011;4809;48.224;8.572;2024-02-26T00:04:13;1.70;;;1.60;;
9541;SDS011;4809;48.224;8.572;2024-02-26T00:06:39;1.70;;;1.60;;
9541;SDS011;4809;48.224;8.572;2024-02-26T00:09:06;1.70;;;1.60;;
9541;SDS011;4809;48.224;8.572;2024-02-26T00:11:32;1.70;;;1.60;;
9541;SDS011;4809;48.224;8.572;2024-02-26T00:13:57;1.77;;;1.67;;
9541;SDS011;4809;48.224;8.572;2024-02-26T00:16:25;2.00;;;1.70;;
9541;SDS011;4809;48.224;8.572;2024-02-26T00:18:52;2.55;;;2.35;;
9541;SDS011;4809;48.224;8.572;2024-02-26T00:21:17;3.50;;;2.60;;
9541;SDS011;4809;48.224;8.572;2024-02-26T00:23:43;2.65;;;2.45;;
9541;SDS011;4809;48.224;8.572;2024-02-26T00:26:08;3.78;;;2.20;;
9541;SDS011;4809;48.224;8.572;2024-02-26T00:28:37;1.85;;;1.63;;
9541;SDS011;4809;48.224;8.572;2024-02-26T00:31:02;1.92;;;1.70;;
9541;SDS011;4809;48.224;8.572;2024-02-26T00:33:31;4.80;;;2.90;;
9541;SDS011;4809;48.224;8.572;2024-02-26T00:35:56;1.98;;;1.60;;
9541;SDS011;4809;48.224;8.572;2024-02-26T00:38:21;1.60;;;1.50;;
9541;SDS011;4809;48.224;8.572;2024-02-26T00:40:47;1.25;;;1.20;;
9541;SDS011;4809;48.224;8.572;2024-02-26T00:43:12;1.10;;;1.10;;
9541;SDS011;4809;48.224;8.572;2024-02-26T00:45:37;1.20;;;1.10;;
9541;SDS011;4809;48.224;8.572;2024-02-26T00:48:03;1.00;;;1.00;;
9541;SDS011;4809;48.224;8.572;2024-02-26T00:50:32;1.42;;;1.10;;
9541;SDS011;4809;48.224;8.572;2024-02-26T00:52:58;1.10;;;0.98;;
9541;SDS011;4809;48.224;8.572;2024-02-26T00:55:24;1.40;;;1.30;;
9541;SDS011;4809;48.224;8.572;2024-02-26T00:57:49;1.70;;;1.60;;
9541;SDS011;4809;48.224;8.572;2024-02-26T01:00:14;1.60;;;1.50;;
9541;SDS011;4809;48.224;8.572;2024-02-26T01:02:40;14.15;;;6.70;;
9541;SDS011;4809;48.224;8.572;2024-02-26T01:05:07;3.47;;;2.30;;
9541;SDS011;4809;48.224;8.572;2024-02-26T01:07:35;1.95;;;1.63;;
9541;SDS011;4809;48.224;8.572;2024-02-26T01:10:04;2.42;;;1.60;;
9541;SDS011;4809;48.224;8.572;2024-02-26T01:12:30;1.70;;;1.60;;
9541;SDS011;4809;48.224;8.572;2024-02-26T01:14:56;2.20;;;2.00;;
9541;SDS011;4809;48.224;8.572;2024-02-26T01:17:21;2.70;;;1.67;;
9541;SDS011;4809;48.224;8.572;2024-02-26T01:19:47;2.00;;;1.90;;
9541;SDS011;4809;48.224;8.572;2024-02-26T01:22:12;2.42;;;1.90;;
9541;SDS011;4809;48.224;8.572;2024-02-26T01:24:37;2.20;;;2.00;;
9541;SDS011;4809;48.224;8.572;2024-02-26T01:27:04;1.52;;;1.42;;
9541;SDS011;4809;48.224;8.572;2024-02-26T01:29:31;1.67;;;1.50;;
9541;SDS011;4809;48.224;8.572;2024-02-26T01:31:56;2.13;;;1.80;;
9541;SDS011;4809;48.224;8.572;2024-02-26T01:34:22;2.10;;;1.90;;
9541;SDS011;4809;48.224;8.572;2024-02-26T01:36:47;2.10;;;1.90;;
9541;SDS011;4809;48.224;8.572;2024-02-26T01:39:13;2.83;;;2.20;;
9541;SDS011;4809;48.224;8.572;2024-02-26T01:41:38;2.10;;;1.90;;
9541;SDS011;4809;48.224;8.572;2024-02-26T01:44:05;2.10;;;1.80;;
9541;SDS011;4809;48.224;8.572;2024-02-26T01:46:32;1.90;;;1.70;;
9541;SDS011;4809;48.224;8.572;2024-02-26T01:48:58;2.17;;;1.60;;
9541;SDS011;4809;48.224;8.572;2024-02-26T01:51:24;1.75;;;1.45;;
9541;SDS011;4809;48.224;8.572;2024-02-26T01:53:49;1.30;;;1.20;;
9541;SDS011;4809;48.224;8.572;2024-02-26T01:56:15;1.50;;;1.40;;
9541;SDS011;4809;48.224;8.572;2024-02-26T01:58:41;1.63;;;1.40;;
9541;SDS011;4809;48.224;8.572;2024-02-26T02:01:08;1.27;;;1.17;;
9541;SDS011;4809;48.224;8.572;2024-02-26T02:03:33;2.38;;;1.38;;
9541;SDS011;4809;48.224;8.572;2024-02-26T02:05:58;1.10;;;1.00;;
9541;SDS011;4809;48.224;8.572;2024-02-26T02:08:24;1.10;;;1.00;;
9541;SDS011;4809;48.224;8.572;2024-02-26T02:10:50;1.10;;;1.10;;
9541;SDS011;4809;48.224;8.572;2024-02-26T02:13:15;1.23;;;1.20;;
9541;SDS011;4809;48.224;8.572;2024-02-26T02:15:40;1.63;;;0.95;;
9541;SDS011;4809;48.224;8.572;2024-02-26T02:18:06;1.00;;;1.00;;
9541;SDS011;4809;48.224;8.572;2024-02-26T02:20:35;0.80;;;0.80;;
9541;SDS011;4809;48.224;8.572;2024-02-26T02:23:01;0.95;;;0.95;;
9541;SDS011;4809;48.224;8.572;2024-02-26T02:25:26;0.60;;;0.60;;
9541;SDS011;4809;48.224;8.572;2024-02-26T02:27:53;0.70;;;0.70;;
9541;SDS011;4809;48.224;8.572;2024-02-26T02:30:19;0.80;;;0.80;;
9541;SDS011;4809;48.224;8.572;2024-02-26T02:32:49;1.10;;;1.00;;
9541;SDS011;4809;48.224;8.572;2024-02-26T02:35:14;1.00;;;0.90;;
9541;SDS011;4809;48.224;8.572;2024-02-26T02:37:40;1.20;;;1.10;;
9541;SDS011;4809;48.224;8.572;2024-02-26T02:40:05;1.65;;;1.20;;
9541;SDS011;4809;48.224;8.572;2024-02-26T02:42:31;1.15;;;1.10;;
9541;SDS011;4809;48.224;8.572;2024-02-26T02:44:56;1.63;;;1.52;;
9541;SDS011;4809;48.224;8.572;2024-02-26T02:47:22;2.42;;;2.20;;
9541;SDS011;4809;48.224;8.572;2024-02-26T02:49:48;2.30;;;2.10;;
9541;SDS011;4809;48.224;8.572;2024-02-26T02:52:13;2.60;;;2.40;;
9541;SDS011;4809;48.224;8.572;2024-02-26T02:54:38;2.95;;;2.40;;
9541;SDS011;4809;48.224;8.572;2024-02-26T02:57:06;3.17;;;2.60;;
9541;SDS011;4809;48.224;8.572;2024-02-26T02:59:32;3.17;;;2.40;;
9541;SDS011;4809;48.224;8.572;2024-02-26T03:01:57;3.25;;;2.40;;
9541;SDS011;4809;48.224;8.572;2024-02-26T03:04:22;2.40;;;1.83;;
9541;SDS011;4809;48.224;8.572;2024-02-26T03:06:48;2.25;;;1.90;;
9541;SDS011;4809;48.224;8.572;2024-02-26T03:09:13;2.88;;;2.00;;
9541;SDS011;4809;48.224;8.572;2024-02-26T03:11:38;2.00;;;1.80;;
9541;SDS011;4809;48.224;8.572;2024-02-26T03:14:04;1.70;;;1.60;;
9541;SDS011;4809;48.224;8.572;2024-02-26T03:16:30;1.50;;;1.40;;
9541;SDS011;4809;48.224;8.572;2024-02-26T03:18:55;1.35;;;1.25;;
9541;SDS011;4809;48.224;8.572;2024-02-26T03:21:21;1.50;;;1.40;;
9541;SDS011;4809;48.224;8.572;2024-02-26T03:23:46;1.73;;;1.63;;
9541;SDS011;4809;48.224;8.572;2024-02-26T03:26:12;1.60;;;1.50;;
9541;SDS011;4809;48.224;8.572;2024-02-26T03:28:39;1.45;;;1.30;;
9541;SDS011;4809;48.224;8.572;2024-02-26T03:31:05;2.13;;;1.70;;
9541;SDS011;4809;48.224;8.572;2024-02-26T03:33:30;1.50;;;1.40;;
9541;SDS011;4809;48.224;8.572;2024-02-26T03:35:56;1.40;;;1.30;;
9541;SDS011;4809;48.224;8.572;2024-02-26T03:38:23;1.15;;;1.10;;
9541;SDS011;4809;48.224;8.572;2024-02-26T03:40:48;1.00;;;1.00;;
9541;SDS011;4809;48.224;8.572;2024-02-26T03:43:13;1.00;;;1.00;;
9541;SDS011;4809;48.224;8.572;2024-02-26T03:45:39;1.73;;;1.48;;
9541;SDS011;4809;48.224;8.572;2024-02-26T03:48:04;1.83;;;1.70;;
9541;SDS011;4809;48.224;8.572;2024-02-26T03:50:30;2.17;;;1.83;;
9541;SDS011;4809;48.224;8.572;2024-02-26T03:52:55;1.63;;;1.52;;
9541;SDS011;4809;48.224;8.572;2024-02-26T03:55:22;1.60;;;1.50;;
9541;SDS011;4809;48.224;8.572;2024-02-26T03:57:50;1.48;;;1.38;;
9541;SDS011;4809;48.224;8.572;2024-02-26T04:00:16;1.60;;;1.50;;
9541;SDS011;4809;48.224;8.572;2024-02-26T04:02:41;1.40;;;1.30;;
9541;SDS011;4809;48.224;8.572;2024-02-26T04:05:10;1.30;;;1.20;;
9541;SDS011;4809;48.224;8.572;2024-02-26T04:07:36;1.05;;;1.05;;
9541;SDS011;4809;48.224;8.572;2024-02-26T04:10:02;1.42;;;1.33;;
9541;SDS011;4809;48.224;8.572;2024-02-26T04:12:30;1.48;;;1.38;;
9541;SDS011;4809;48.224;8.572;2024-02-26T04:14:55;1.40;;;1.30;;
9541;SDS011;4809;48.224;8.572;2024-02-26T04:17:21;1.42;;;1.33;;
9541;SDS011;4809;48.224;8.572;2024-02-26T04:19:46;1.40;;;1.30;;
9541;SDS011;4809;48.224;8.572;2024-02-26T04:22:12;1.23;;;1.23;;
9541;SDS011;4809;48.224;8.572;2024-02-26T04:24:37;1.45;;;1.35;;
9541;SDS011;4809;48.224;8.572;2024-02-26T04:27:02;1.67;;;1.50;;
9541;SDS011;4809;48.224;8.572;2024-02-26T04:29:28;1.10;;;1.08;;
9541;SDS011;4809;48.224;8.572;2024-02-26T04:31:53;1.42;;;1.33;;
9541;SDS011;4809;48.224;8.572;2024-02-26T04:34:19;1.55;;;1.45;;
9541;SDS011;4809;48.224;8.572;2024-02-26T04:36:44;1.58;;;1.48;;
9541;SDS011;4809;48.224;8.572;2024-02-26T04:39:09;1.60;;;1.50;;
9541;SDS011;4809;48.224;8.572;2024-02-26T04:41:35;2.33;;;1.50;;
9541;SDS011;4809;48.224;8.572;2024-02-26T04:44:00;1.70;;;1.60;;
9541;SDS011;4809;48.224;8.572;2024-02-26T04:46:27;1.77;;;1.67;;
9541;SDS011;4809;48.224;8.572;2024-02-26T04:48:53;1.90;;;1.70;;
9541;SDS011;4809;48.224;8.572;2024-02-26T04:51:18;2.47;;;1.90;;
9541;SDS011;4809;48.224;8.572;2024-02-26T04:53:44;4.82;;;2.80;;
9541;SDS011;4809;48.224;8.572;2024-02-26T04:56:09;4.95;;;2.75;;
9541;SDS011;4809;48.224;8.572;2024-02-26T04:58:35;8.25;;;6.05;;
9541;SDS011;4809;48.224;8.572;2024-02-26T05:01:00;8.50;;;6.03;;
9541;SDS011;4809;48.224;8.572;2024-02-26T05:03:25;4.53;;;3.10;;
9541;SDS011;4809;48.224;8.572;2024-02-26T05:05:51;3.35;;;2.55;;
9541;SDS011;4809;48.224;8.572;2024-02-26T05:08:16;2.30;;;2.10;;
9541;SDS011;4809;48.224;8.572;2024-02-26T05:10:42;2.20;;;1.70;;
9541;SDS011;4809;48.224;8.572;2024-02-26T05:13:08;2.10;;;1.80;;
9541;SDS011;4809;48.224;8.572;2024-02-26T05:15:34;1.80;;;1.70;;
9541;SDS011;4809;48.224;8.572;2024-02-26T05:17:59;1.80;;;1.60;;
9541;SDS011;4809;48.224;8.572;2024-02-26T05:20:25;1.50;;;1.40;;
9541;SDS011;4809;48.224;8.572;2024-02-26T05:22:50;1.58;;;1.25;;
9541;SDS011;4809;48.224;8.572;2024-02-26T05:25:16;1.70;;;1.60;;
9541;SDS011;4809;48.224;8.572;2024-02-26T05:27:43;5.63;;;3.65;;
9541;SDS011;4809;48.224;8.572;2024-02-26T05:30:08;4.57;;;3.75;;
9541;SDS011;4809;48.224;8.572;2024-02-26T05:32:34;3.35;;;3.00;;
9541;SDS011;4809;48.224;8.572;2024-02-26T05:35:00;2.45;;;2.25;;
9541;SDS011;4809;48.224;8.572;2024-02-26T05:37:25;3.05;;;2.40;;
9541;SDS011;4809;48.224;8.572;2024-02-26T05:39:50;4.13;;;3.63;;
9541;SDS011;4809;48.224;8.572;2024-02-26T05:42:17;5.75;;;4.03;;
9541;SDS011;4809;48.224;8.572;2024-02-26T05:44:42;6.10;;;4.30;;
9541;SDS011;4809;48.224;8.572;2024-02-26T05:47:09;5.72;;;3.60;;
9541;SDS011;4809;48.224;8.572;2024-02-26T05:49:35;4.93;;;3.88;;
9541;SDS011;4809;48.224;8.572;2024-02-26T05:52:00;6.10;;;4.50;;
9541;SDS011;4809;48.224;8.572;2024-02-26T05:54:25;7.65;;;5.05;;
9541;SDS011;4809;48.224;8.572;2024-02-26T05:56:51;6.47;;;4.10;;
9541;SDS011;4809;48.224;8.572;2024-02-26T05:59:18;7.13;;;5.00;;
9541;SDS011;4809;48.224;8.572;2024-02-26T06:01:43;14.07;;;9.27;;
9541;SDS011;4809;48.224;8.572;2024-02-26T06:04:09;9.25;;;6.53;;
9541;SDS011;4809;48.224;8.572;2024-02-26T06:06:34;7.30;;;5.00;;
9541;SDS011;4809;48.224;8.572;2024-02-26T06:08:59;9.50;;;6.43;;
9541;SDS011;4809;48.224;8.572;2024-02-26T06:11:25;9.38;;;6.13;;
9541;SDS011;4809;48.224;8.572;2024-02-26T06:13:50;6.43;;;4.80;;
9541;SDS011;4809;48.224;8.572;2024-02-26T06:16:15;4.70;;;3.78;;
9541;SDS011;4809;48.224;8.572;2024-02-26T06:18:41;9.18;;;7.68;;
9541;SDS011;4809;48.224;8.572;2024-02-26T06:21:09;17.60;;;13.57;;
9541;SDS011;4809;48.224;8.572;2024-02-26T06:23:35;13.95;;;10.80;;
9541;SDS011;4809;48.224;8.572;2024-02-26T06:26:00;8.35;;;6.38;;
9541;SDS011;4809;48.224;8.572;2024-02-26T06:28:27;9.13;;;7.10;;
9541;SDS011;4809;48.224;8.572;2024-02-26T06:30:55;12.02;;;8.93;;
9541;SDS011;4809;48.224;8.572;2024-02-26T06:33:21;10.13;;;7.03;;
9541;SDS011;4809;48.224;8.572;2024-02-26T06:35:46;10.05;;;7.25;;
9541;SDS011;4809;48.224;8.572;2024-02-26T06:38:11;11.65;;;8.20;;
9541;SDS011;4809;48.224;8.572;2024-02-26T06:40:38;14.93;;;9.88;;
9541;SDS011;4809;48.224;8.572;2024-02-26T06:43:05;14.80;;;9.75;;
9541;SDS011;4809;48.224;8.572;2024-02-26T06:45:32;10.02;;;7.00;;
9541;SDS011;4809;48.224;8.572;2024-02-26T06:47:57;9.32;;;5.78;;
9541;SDS011;4809;48.224;8.572;2024-02-26T06:50:23;8.20;;;4.93;;
9541;SDS011;4809;48.224;8.572;2024-02-26T06:52:48;8.63;;;5.80;;
9541;SDS011;4809;48.224;8.572;2024-02-26T06:55:13;7.40;;;5.18;;
9541;SDS011;4809;48.224;8.572;2024-02-26T06:57:39;12.65;;;8.77;;
9541;SDS011;4809;48.224;8.572;2024-02-26T07:00:04;10.30;;;8.35;;
9541;SDS011;4809;48.224;8.572;2024-02-26T07:02:30;7.30;;;5.45;;
9541;SDS011;4809;48.224;8.572;2024-02-26T07:04:56;6.80;;;4.35;;
9541;SDS011;4809;48.224;8.572;2024-02-26T07:07:23;6.57;;;5.57;;
9541;SDS011;4809;48.224;8.572;2024-02-26T07:09:51;6.75;;;4.82;;
9541;SDS011;4809;48.224;8.572;2024-02-26T07:12:17;5.88;;;4.15;;
9541;SDS011;4809;48.224;8.572;2024-02-26T07:14:42;5.68;;;4.90;;
9541;SDS011;4809;48.224;8.572;2024-02-26T07:17:08;5.75;;;4.40;;
9541;SDS011;4809;48.224;8.572;2024-02-26T07:19:33;4.45;;;3.70;;
9541;SDS011;4809;48.224;8.572;2024-02-26T07:21:59;5.32;;;3.97;;
9541;SDS011;4809;48.224;8.572;2024-02-26T07:24:26;4.90;;;3.33;;
9541;SDS011;4809;48.224;8.572;2024-02-26T07:26:52;4.32;;;3.30;;
9541;SDS011;4809;48.224;8.572;2024-02-26T07:29:19;2.88;;;2.33;;
9541;SDS011;4809;48.224;8.572;2024-02-26T07:31:45;2.90;;;2.60;;
9541;SDS011;4809;48.224;8.572;2024-02-26T07:34:10;2.60;;;2.40;;
9541;SDS011;4809;48.224;8.572;2024-02-26T07:36:35;2.85;;;2.45;;
9541;SDS011;4809;48.224;8.572;2024-02-26T07:39:01;4.20;;;2.95;;
9541;SDS011;4809;48.224;8.572;2024-02-26T07:41:26;3.03;;;2.63;;
9541;SDS011;4809;48.224;8.572;2024-02-26T07:43:52;3.13;;;2.75;;
9541;SDS011;4809;48.224;8.572;2024-02-26T07:46:17;4.03;;;2.78;;
9541;SDS011;4809;48.224;8.572;2024-02-26T07:48:43;3.28;;;2.80;;
9541;SDS011;4809;48.224;8.572;2024-02-26T07:51:09;4.35;;;3.47;;
9541;SDS011;4809;48.224;8.572;2024-02-26T07:53:37;6.05;;;4.50;;
9541;SDS011;4809;48.224;8.572;2024-02-26T07:56:02;5.70;;;4.30;;
9541;SDS011;4809;48.224;8.572;2024-02-26T07:58:28;5.45;;;3.58;;
9541;SDS011;4809;48.224;8.572;2024-02-26T08:00:53;5.93;;;4.38;;
9541;SDS011;4809;48.224;8.572;2024-02-26T08:03:19;5.88;;;4.40;;
9541;SDS011;4809;48.224;8.572;2024-02-26T08:05:44;4.13;;;2.90;;
9541;SDS011;4809;48.224;8.572;2024-02-26T08:08:09;3.17;;;2.42;;
9541;SDS011;4809;48.224;8.572;2024-02-26T08:10:35;3.35;;;2.40;;
9541;SDS011;4809;48.224;8.572;2024-02-26T08:13:00;2.50;;;2.05;;
9541;SDS011;4809;48.224;8.572;2024-02-26T08:15:33;2.00;;;1.88;;
9541;SDS011;4809;48.224;8.572;2024-02-26T08:18:00;2.83;;;2.00;;
9541;SDS011;4809;48.224;8.572;2024-02-26T08:20:29;2.92;;;2.63;;
9541;SDS011;4809;48.224;8.572;2024-02-26T08:22:55;3.17;;;2.50;;
9541;SDS011;4809;48.224;8.572;2024-02-26T08:25:20;2.80;;;2.50;;
9541;SDS011;4809;48.224;8.572;2024-02-26T08:27:46;3.45;;;2.60;;
9541;SDS011;4809;48.224;8.572;2024-02-26T08:30:14;2.65;;;2.33;;
9541;SDS011;4809;48.224;8.572;2024-02-26T08:32:42;2.45;;;2.25;;
9541;SDS011;4809;48.224;8.572;2024-02-26T08:35:08;2.78;;;2.08;;
9541;SDS011;4809;48.224;8.572;2024-02-26T08:37:33;3.17;;;2.20;;
9541;SDS011;4809;48.224;8.572;2024-02-26T08:39:59;2.38;;;2.10;;
9541;SDS011;4809;48.224;8.572;2024-02-26T08:42:24;2.60;;;2.40;;
9541;SDS011;4809;48.224;8.572;2024-02-26T08:44:49;3.20;;;2.90;;
9541;SDS011;4809;48.224;8.572;2024-02-26T08:47:15;2.70;;;2.47;;
9541;SDS011;4809;48.224;8.572;2024-02-26T08:49:47;2.42;;;2.22;;
9541;SDS011;4809;48.224;8.572;2024-02-26T08:52:12;2.40;;;2.20;;
9541;SDS011;4809;48.224;8.572;2024-02-26T08:54:38;2.53;;;2.33;;
9541;SDS011;4809;48.224;8.572;2024-02-26T08:57:05;2.70;;;2.20;;
9541;SDS011;4809;48.224;8.572;2024-02-26T08:59:32;3.50;;;2.30;;
9541;SDS011;4809;48.224;8.572;2024-02-26T09:01:57;2.92;;;2.42;;
9541;SDS011;4809;48.224;8.572;2024-02-26T09:04:23;3.90;;;3.05;;
9541;SDS011;4809;48.224;8.572;2024-02-26T09:06:48;4.30;;;3.22;;
9541;SDS011;4809;48.224;8.572;2024-02-26T09:09:14;4.78;;;3.55;;
9541;SDS011;4809;48.224;8.572;2024-02-26T09:11:39;3.70;;;3.05;;
9541;SDS011;4809;48.224;8.572;2024-02-26T09:14:04;4.38;;;3.00;;
9541;SDS011;4809;48.224;8.572;2024-02-26T09:16:30;4.88;;;3.45;;
9541;SDS011;4809;48.224;8.572;2024-02-26T09:18:56;4.05;;;3.35;;
9541;SDS011;4809;48.224;8.572;2024-02-26T09:21:21;4.60;;;3.53;;
9541;SDS011;4809;48.224;8.572;2024-02-26T09:23:52;3.03;;;2.30;;
9541;SDS011;4809;48.224;8.572;2024-02-26T09:26:17;5.47;;;2.45;;
9541;SDS011;4809;48.224;8.572;2024-02-26T09:28:43;3.85;;;2.63;;
9541;SDS011;4809;48.224;8.572;2024-02-26T09:31:09;3.90;;;2.75;;
9541;SDS011;4809;48.224;8.572;2024-02-26T09:33:34;3.00;;;2.50;;
9541;SDS011;4809;48.224;8.572;2024-02-26T09:36:00;2.13;;;2.00;;
9541;SDS011;4809;48.224;8.572;2024-02-26T09:38:26;2.08;;;1.88;;
9541;SDS011;4809;48.224;8.572;2024-02-26T09:40:56;2.45;;;2.25;;
9541;SDS011;4809;48.224;8.572;2024-02-26T09:43:22;3.85;;;2.33;;
9541;SDS011;4809;48.224;8.572;2024-02-26T09:45:53;3.83;;;2.50;;
9541;SDS011;4809;48.224;8.572;2024-02-26T09:48:19;3.47;;;2.58;;
9541;SDS011;4809;48.224;8.572;2024-02-26T09:50:45;2.35;;;2.13;;
9541;SDS011;4809;48.224;8.572;2024-02-26T09:53:12;2.60;;;2.20;;
9541;SDS011;4809;48.224;8.572;2024-02-26T09:55:37;2.20;;;2.00;;
9541;SDS011;4809;48.224;8.572;2024-02-26T09:58:04;2.17;;;1.98;;
9541;SDS011;4809;48.224;8.572;2024-02-26T10:00:30;3.42;;;2.25;;
9541;SDS011;4809;48.224;8.572;2024-02-26T10:02:58;2.20;;;1.95;;
9541;SDS011;4809;48.224;8.572;2024-02-26T10:05:27;3.30;;;2.10;;
9541;SDS011;4809;48.224;8.572;2024-02-26T10:07:54;2.55;;;2.15;;
9541;SDS011;4809;48.224;8.572;2024-02-26T10:10:22;3.63;;;2.78;;
9541;SDS011;4809;48.224;8.572;2024-02-26T10:12:48;2.92;;;2.63;;
9541;SDS011;4809;48.224;8.572;2024-02-26T10:15:14;3.25;;;2.75;;
9541;SDS011;4809;48.224;8.572;2024-02-26T10:17:39;4.07;;;2.30;;
9541;SDS011;4809;48.224;8.572;2024-02-26T10:20:12;2.58;;;2.00;;
9541;SDS011;4809;48.224;8.572;2024-02-26T10:22:46;2.25;;;2.03;;
9541;SDS011;4809;48.224;8.572;2024-02-26T10:25:12;2.30;;;2.10;;
9541;SDS011;4809;48.224;8.572;2024-02-26T10:27:37;1.90;;;1.80;;
9541;SDS011;4809;48.224;8.572;2024-02-26T10:30:36;2.63;;;2.20;;
9541;SDS011;4809;48.224;8.572;2024-02-26T10:32:55;2.60;;;2.40;;
9541;SDS011;4809;48.224;8.572;2024-02-26T10:35:21;2.40;;;2.20;;
9541;SDS011;4809;48.224;8.572;2024-02-26T10:37:46;2.50;;;2.00;;
9541;SDS011;4809;48.224;8.572;2024-02-26T10:40:15;2.20;;;2.05;;
9541;SDS011;4809;48.224;8.572;2024-02-26T10:42:41;3.92;;;2.80;;
9541;SDS011;4809;48.224;8.572;2024-02-26T10:45:08;10.98;;;7.80;;
9541;SDS011;4809;48.224;8.572;2024-02-26T10:47:36;5.78;;;3.63;;
9541;SDS011;4809;48.224;8.572;2024-02-26T10:50:02;2.65;;;2.45;;
9541;SDS011;4809;48.224;8.572;2024-02-26T10:52:32;2.22;;;2.03;;
9541;SDS011;4809;48.224;8.572;2024-02-26T10:55:02;2.08;;;1.90;;
9541;SDS011;4809;48.224;8.572;2024-02-26T10:57:29;10.85;;;7.18;;
9541;SDS011;4809;48.224;8.572;2024-02-26T10:59:57;7.75;;;4.72;;
9541;SDS011;4809;48.224;8.572;2024-02-26T11:02:23;6.90;;;4.22;;
9541;SDS011;4809;48.224;8.572;2024-02-26T11:04:48;3.58;;;2.80;;
9541;SDS011;4809;48.224;8.572;2024-02-26T11:07:15;7.10;;;4.47;;
9541;SDS011;4809;48.224;8.572;2024-02-26T11:09:40;9.27;;;6.78;;
9541;SDS011;4809;48.224;8.572;2024-02-26T11:12:10;4.53;;;2.95;;
9541;SDS011;4809;48.224;8.572;2024-02-26T11:14:38;3.78;;;2.20;;
9541;SDS011;4809;48.224;8.572;2024-02-26T11:17:04;2.53;;;2.17;;
9541;SDS011;4809;48.224;8.572;2024-02-26T11:19:30;4.32;;;3.03;;
9541;SDS011;4809;48.224;8.572;2024-02-26T11:21:56;3.92;;;3.13;;
9541;SDS011;4809;48.224;8.572;2024-02-26T11:24:22;4.93;;;4.18;;
9541;SDS011;4809;48.224;8.572;2024-02-26T11:26:52;6.40;;;4.10;;
9541;SDS011;4809;48.224;8.572;2024-02-26T11:29:33;5.53;;;3.30;;
9541;SDS011;4809;48.224;8.572;2024-02-26T11:32:00;5.57;;;3.25;;
9541;SDS011;4809;48.224;8.572;2024-02-26T11:34:27;2.40;;;2.20;;
9541;SDS011;4809;48.224;8.572;2024-02-26T11:36:52;1.90;;;1.70;;
9541;SDS011;4809;48.224;8.572;2024-02-26T11:39:18;1.40;;;1.30;;
9541;SDS011;4809;48.224;8.572;2024-02-26T11:41:43;1.33;;;1.25;;
9541;SDS011;4809;48.224;8.572;2024-02-26T11:44:09;1.42;;;1.30;;
9541;SDS011;4809;48.224;8.572;2024-02-26T11:46:41;1.23;;;1.13;;
9541;SDS011;4809;48.224;8.572;2024-02-26T11:51:51;0.90;;;0.90;;
9541;SDS011;4809;48.224;8.572;2024-02-26T11:57:24;0.88;;;0.88;;
9541;SDS011;4809;48.224;8.572;2024-02-26T12:00:16;2.50;;;1.73;;
9541;SDS011;4809;48.224;8.572;2024-02-26T12:02:52;1.70;;;1.60;;
9541;SDS011;4809;48.224;8.572;2024-02-26T12:05:26;1.90;;;1.30;;
9541;SDS011;4809;48.224;8.572;2024-02-26T12:07:55;1.55;;;1.40;;
9541;SDS011;4809;48.224;8.572;2024-02-26T12:10:28;1.50;;;1.40;;
9541;SDS011;4809;48.224;8.572;2024-02-26T12:12:59;1.88;;;1.65;;
9541;SDS011;4809;48.224;8.572;2024-02-26T12:15:39;1.60;;;1.50;;
9541;SDS011;4809;48.224;8.572;2024-02-26T12:18:08;3.63;;;2.83;;
9541;SDS011;4809;48.224;8.572;2024-02-26T12:20:37;3.22;;;2.50;;
9541;SDS011;4809;48.224;8.572;2024-02-26T12:23:03;2.75;;;2.50;;
9541;SDS011;4809;48.224;8.572;2024-02-26T12:25:32;3.28;;;2.75;;
9541;SDS011;4809;48.224;8.572;2024-02-26T12:27:58;2.58;;;2.30;;
9541;SDS011;4809;48.224;8.572;2024-02-26T12:30:24;2.20;;;2.08;;
9541;SDS011;4809;48.224;8.572;2024-02-26T12:32:54;2.83;;;2.13;;
9541;SDS011;4809;48.224;8.572;2024-02-26T12:35:22;2.90;;;2.22;;
9541;SDS011;4809;48.224;8.572;2024-02-26T12:37:48;3.13;;;2.58;;
9541;SDS011;4809;48.224;8.572;2024-02-26T12:40:13;4.20;;;3.10;;
9541;SDS011;4809;48.224;8.572;2024-02-26T12:42:39;4.05;;;3.05;;
9541;SDS011;4809;48.224;8.572;2024-02-26T12:45:14;3.95;;;2.58;;
9541;SDS011;4809;48.224;8.572;2024-02-26T12:47:41;2.17;;;2.05;;
9541;SDS011;4809;48.224;8.572;2024-02-26T12:50:08;2.63;;;2.42;;
9541;SDS011;4809;48.224;8.572;2024-02-26T12:52:34;2.88;;;2.30;;
9541;SDS011;4809;48.224;8.572;2024-02-26T12:55:02;3.10;;;2.72;;
9541;SDS011;4809;48.224;8.572;2024-02-26T12:57:29;2.85;;;2.42;;
9541;SDS011;4809;48.224;8.572;2024-02-26T12:59:56;3.42;;;2.20;;
9541;SDS011;4809;48.224;8.572;2024-02-26T13:02:22;2.85;;;2.50;;
9541;SDS011;4809;48.224;8.572;2024-02-26T13:04:48;2.40;;;2.20;;
9541;SDS011;4809;48.224;8.572;2024-02-26T13:07:13;3.03;;;2.25;;
9541;SDS011;4809;48.224;8.572;2024-02-26T13:09:39;2.67;;;2.03;;
9541;SDS011;4809;48.224;8.572;2024-02-26T13:12:05;2.45;;;2.13;;
9541;SDS011;4809;48.224;8.572;2024-02-26T13:14:31;2.22;;;2.03;;
9541;SDS011;4809;48.224;8.572;2024-02-26T13:16:58;2.53;;;2.00;;
9541;SDS011;4809;48.224;8.572;2024-02-26T13:19:24;1.75;;;1.65;;
9541;SDS011;4809;48.224;8.572;2024-02-26T13:21:50;2.45;;;1.90;;
9541;SDS011;4809;48.224;8.572;2024-02-26T13:24:15;2.53;;;1.77;;
9541;SDS011;4809;48.224;8.572;2024-02-26T13:26:41;2.42;;;1.77;;
9541;SDS011;4809;48.224;8.572;2024-02-26T13:29:06;1.80;;;1.70;;
9541;SDS011;4809;48.224;8.572;2024-02-26T13:31:38;2.15;;;1.95;;
9541;SDS011;4809;48.224;8.572;2024-02-26T13:34:04;3.28;;;2.95;;
9541;SDS011;4809;48.224;8.572;2024-02-26T13:36:30;2.45;;;2.20;;
9541;SDS011;4809;48.224;8.572;2024-02-26T13:38:55;11.02;;;5.85;;
9541;SDS011;4809;48.224;8.572;2024-02-26T13:41:21;2.47;;;2.05;;
9541;SDS011;4809;48.224;8.572;2024-02-26T13:43:47;2.80;;;1.90;;
9541;SDS011;4809;48.224;8.572;2024-02-26T13:46:12;2.15;;;1.95;;
9541;SDS011;4809;48.224;8.572;2024-02-26T13:48:40;5.30;;;3.45;;
9541;SDS011;4809;48.224;8.572;2024-02-26T13:51:06;1.48;;;1.38;;
9541;SDS011;4809;48.224;8.572;2024-02-26T13:53:31;2.30;;;2.00;;
9541;SDS011;4809;48.224;8.572;2024-02-26T13:55:56;1.50;;;1.40;;
9541;SDS011;4809;48.224;8.572;2024-02-26T13:58:23;1.80;;;1.70;;
9541;SDS011;4809;48.224;8.572;2024-02-26T14:00:49;1.90;;;1.80;;
9541;SDS011;4809;48.224;8.572;2024-02-26T14:03:15;2.78;;;2.47;;
9541;SDS011;4809;48.224;8.572;2024-02-26T14:05:41;7.55;;;4.20;;
9541;SDS011;4809;48.224;8.572;2024-02-26T14:08:06;15.63;;;9.98;;
9541;SDS011;4809;48.224;8.572;2024-02-26T14:10:32;6.25;;;4.38;;
9541;SDS011;4809;48.224;8.572;2024-02-26T14:12:58;9.93;;;7.25;;
9541;SDS011;4809;48.224;8.572;2024-02-26T14:15:24;8.52;;;6.20;;
9541;SDS011;4809;48.224;8.572;2024-02-26T14:17:50;6.43;;;4.85;;
9541;SDS011;4809;48.224;8.572;2024-02-26T14:20:20;6.88;;;5.53;;
9541;SDS011;4809;48.224;8.572;2024-02-26T14:22:45;6.75;;;5.00;;
9541;SDS011;4809;48.224;8.572;2024-02-26T14:25:11;4.32;;;3.70;;
9541;SDS011;4809;48.224;8.572;2024-02-26T14:27:36;5.25;;;4.07;;
9541;SDS011;4809;48.224;8.572;2024-02-26T14:30:02;4.07;;;3.20;;
9541;SDS011;4809;48.224;8.572;2024-02-26T14:32:27;3.05;;;2.20;;
9541;SDS011;4809;48.224;8.572;2024-02-26T14:34:53;2.15;;;1.70;;
9541;SDS011;4809;48.224;8.572;2024-02-26T14:37:18;2.20;;;1.90;;
9541;SDS011;4809;48.224;8.572;2024-02-26T14:39:43;6.63;;;1.92;;
9541;SDS011;4809;48.224;8.572;2024-02-26T14:42:09;3.67;;;1.70;;
9541;SDS011;4809;48.224;8.572;2024-02-26T14:44:34;4.13;;;3.08;;
9541;SDS011;4809;48.224;8.572;2024-02-26T14:46:59;5.10;;;3.40;;
9541;SDS011;4809;48.224;8.572;2024-02-26T14:49:25;2.33;;;1.63;;
9541;SDS011;4809;48.224;8.572;2024-02-26T14:51:50;2.70;;;1.50;;
9541;SDS011;4809;48.224;8.572;2024-02-26T14:54:16;2.25;;;1.60;;
9541;SDS011;4809;48.224;8.572;2024-02-26T14:56:41;2.13;;;1.88;;
9541;SDS011;4809;48.224;8.572;2024-02-26T14:59:06;3.65;;;2.15;;
9541;SDS011;4809;48.224;8.572;2024-02-26T15:01:32;1.83;;;1.55;;
9541;SDS011;4809;48.224;8.572;2024-02-26T15:03:58;1.55;;;1.23;;
9541;SDS011;4809;48.224;8.572;2024-02-26T15:06:24;3.72;;;1.83;;
9541;SDS011;4809;48.224;8.572;2024-02-26T15:08:49;7.22;;;4.15;;
9541;SDS011;4809;48.224;8.572;2024-02-26T15:11:15;4.28;;;2.58;;
9541;SDS011;4809;48.224;8.572;2024-02-26T15:13:40;5.68;;;3.10;;
9541;SDS011;4809;48.224;8.572;2024-02-26T15:16:06;13.20;;;8.38;;